Time;durP1;ratioP1;P1;durP2;ratioP2;P2;SDS_P1;SDS_P2;PMS_P1;PMS_P2;Temp;Humidity;BMP_temperature;BMP_pressure;BME280_temperature;BME280_humidity;BME280_pressure;Samples;Min_cycle;Max_cycle;Signal;HPM_P1;HPM_P2
2021/04/18 00:01:23;;;;;;;5.90;3.23;;;8.40;99.90;;;;;;5071826;28;20863;-77
2021/04/18 00:03:49;;;;;;;5.60;3.50;;;8.40;99.90;;;;;;5074157;28;20231;-77
2021/04/18 00:06:16;;;;;;;5.77;3.03;;;8.40;99.90;;;;;;5071420;28;20181;-76
2021/04/18 00:08:42;;;;;;;4.33;2.80;;;8.30;99.90;;;;;;5087840;28;20181;-76
2021/04/18 00:11:08;;;;;;;10.40;3.17;;;8.40;99.90;;;;;;5070423;28;20511;-77
2021/04/18 00:13:33;;;;;;;5.93;4.00;;;8.30;99.90;;;;;;5072287;28;20571;-77
2021/04/18 00:15:59;;;;;;;9.80;4.17;;;8.20;99.90;;;;;;5070935;28;20587;-77
2021/04/18 00:18:24;;;;;;;4.17;3.73;;;8.10;99.90;;;;;;5072648;28;20189;-77
2021/04/18 00:20:50;;;;;;;5.70;4.33;;;8.10;99.90;;;;;;5071652;28;20185;-77
2021/04/18 00:23:15;;;;;;;6.37;3.63;;;8.00;99.90;;;;;;5072329;28;20170;-77
2021/04/18 00:25:41;;;;;;;8.60;5.00;;;8.00;99.90;;;;;;5071615;28;20185;-78
2021/04/18 00:28:06;;;;;;;5.67;4.30;;;7.90;99.90;;;;;;5073344;28;20170;-77
2021/04/18 00:30:32;;;;;;;7.70;4.80;;;8.00;99.90;;;;;;5071824;28;20201;-77
2021/04/18 00:32:57;;;;;;;7.30;4.70;;;7.90;99.90;;;;;;5072982;28;20679;-77
2021/04/18 00:35:23;;;;;;;5.93;4.47;;;7.90;99.90;;;;;;5075030;28;20211;-77
2021/04/18 00:37:49;;;;;;;6.97;4.30;;;7.90;99.90;;;;;;5075046;28;20583;-77
2021/04/18 00:40:19;;;;;;;9.40;5.50;;;7.90;99.90;;;;;;5075034;28;20193;-77
2021/04/18 00:42:45;;;;;;;6.90;4.67;;;7.90;99.90;;;;;;5075009;28;20195;-77
2021/04/18 00:45:11;;;;;;;6.47;4.73;;;7.90;99.90;;;;;;5081083;28;20518;-78
2021/04/18 00:47:49;;;;;;;11.43;6.13;;;7.80;99.90;;;;;;5070175;28;20204;-77
2021/04/18 00:50:25;;;;;;;8.83;4.77;;;7.70;99.90;;;;;;5071903;28;20408;-76
2021/04/18 00:52:51;;;;;;;8.80;5.03;;;7.70;99.90;;;;;;5072070;28;20987;-76
2021/04/18 00:55:18;;;;;;;9.53;5.30;;;7.70;99.90;;;;;;5072131;28;20440;-76
2021/04/18 00:57:44;;;;;;;8.00;5.33;;;7.70;99.90;;;;;;5070578;28;20495;-76
2021/04/18 01:00:10;;;;;;;8.27;5.20;;;7.70;99.90;;;;;;5070492;28;20499;-76
2021/04/18 01:02:36;;;;;;;10.20;6.07;;;7.60;99.90;;;;;;5071894;28;20435;-76
2021/04/18 01:05:04;;;;;;;8.20;6.00;;;7.60;99.90;;;;;;5075458;28;20436;-77
2021/04/18 01:07:30;;;;;;;9.10;4.40;;;7.50;99.90;;;;;;5079220;28;20193;-76
2021/04/18 01:09:55;;;;;;;10.40;6.10;;;7.50;99.90;;;;;;5090995;28;20425;-78
2021/04/18 01:12:22;;;;;;;8.80;5.60;;;7.50;99.90;;;;;;5082647;28;20198;-74
2021/04/18 01:14:47;;;;;;;8.70;5.40;;;7.40;99.90;;;;;;5097896;28;20182;-76
2021/04/18 01:17:13;;;;;;;9.47;6.30;;;7.40;99.90;;;;;;5068456;28;20426;-77
2021/04/18 01:19:39;;;;;;;11.90;6.17;;;7.40;99.90;;;;;;5070778;28;20517;-77
2021/04/18 01:22:04;;;;;;;7.93;5.60;;;7.30;99.90;;;;;;5075561;28;20254;-77
2021/04/18 01:24:30;;;;;;;9.37;6.13;;;7.20;99.90;;;;;;5074618;28;20174;-77
2021/04/18 01:26:56;;;;;;;14.63;7.20;;;7.10;99.90;;;;;;5075347;28;20249;-76
2021/04/18 01:29:23;;;;;;;10.17;6.10;;;7.10;99.90;;;;;;5072482;28;20166;-76
2021/04/18 01:31:49;;;;;;;10.57;8.50;;;7.10;99.90;;;;;;5072809;28;20683;-77
2021/04/18 01:34:16;;;;;;;15.73;6.70;;;7.10;99.90;;;;;;5075074;28;20452;-77
2021/04/18 01:36:46;;;;;;;10.50;7.23;;;7.10;99.90;;;;;;5072780;28;20184;-76
2021/04/18 01:39:13;;;;;;;13.00;7.70;;;7.10;99.90;;;;;;5085399;28;20447;-77
2021/04/18 01:41:40;;;;;;;9.90;7.57;;;7.10;99.90;;;;;;5071319;28;20448;-77
2021/04/18 01:44:06;;;;;;;10.50;6.77;;;7.20;99.90;;;;;;5071883;28;20887;-77
2021/04/18 01:46:32;;;;;;;13.43;8.00;;;7.20;99.90;;;;;;5075693;28;20465;-77
2021/04/18 01:48:58;;;;;;;15.43;7.63;;;7.30;99.90;;;;;;5074646;28;20420;-79
2021/04/18 01:51:25;;;;;;;9.47;6.50;;;7.30;99.90;;;;;;5076506;28;20446;-78
2021/04/18 01:53:51;;;;;;;10.37;7.60;;;7.40;99.90;;;;;;5076868;28;20205;-76
2021/04/18 01:56:17;;;;;;;10.07;6.70;;;7.50;99.90;;;;;;5072950;28;21312;-77
2021/04/18 01:58:43;;;;;;;9.90;6.73;;;7.40;99.90;;;;;;5075295;28;20424;-76
2021/04/18 02:01:09;;;;;;;14.47;6.90;;;7.50;99.90;;;;;;5072987;28;20805;-78
2021/04/18 02:03:34;;;;;;;12.87;6.27;;;7.60;99.90;;;;;;5079746;28;20412;-77
2021/04/18 02:06:00;;;;;;;9.20;6.30;;;7.70;99.90;;;;;;5078215;28;20166;-78
2021/04/18 02:08:26;;;;;;;10.50;6.70;;;7.70;99.90;;;;;;5075318;28;20547;-77
2021/04/18 02:10:51;;;;;;;11.20;6.80;;;7.80;99.90;;;;;;5073378;28;20420;-77
2021/04/18 02:13:17;;;;;;;7.90;6.00;;;7.80;99.90;;;;;;5088897;28;20213;-78
2021/04/18 02:15:43;;;;;;;12.00;7.13;;;7.70;99.90;;;;;;5078594;28;20174;-77
2021/04/18 02:18:09;;;;;;;8.90;6.60;;;7.80;99.90;;;;;;5078806;28;20911;-77
2021/04/18 02:20:34;;;;;;;9.20;6.57;;;7.80;99.90;;;;;;5081303;28;20183;-77
2021/04/18 02:23:01;;;;;;;11.20;7.07;;;7.80;99.90;;;;;;5079673;28;20237;-83
2021/04/18 02:25:27;;;;;;;11.90;7.10;;;7.70;99.90;;;;;;5058319;28;20198;-77
2021/04/18 02:27:53;;;;;;;10.43;5.80;;;7.70;99.90;;;;;;5080911;28;20468;-78
2021/04/18 02:30:19;;;;;;;8.30;5.83;;;7.60;99.90;;;;;;5077794;28;20174;-77
2021/04/18 02:32:45;;;;;;;7.40;5.57;;;7.70;99.90;;;;;;5075283;28;20197;-77
2021/04/18 02:35:12;;;;;;;8.90;6.70;;;7.70;99.90;;;;;;5073680;28;20447;-77
2021/04/18 02:37:38;;;;;;;10.20;7.00;;;7.70;99.90;;;;;;5079108;28;20173;-77
2021/04/18 02:40:04;;;;;;;13.30;6.30;;;7.60;99.90;;;;;;5077954;28;20436;-78
2021/04/18 02:42:30;;;;;;;10.13;6.90;;;7.60;99.90;;;;;;5090662;28;20447;-78
2021/04/18 02:44:55;;;;;;;10.30;6.33;;;7.70;99.90;;;;;;5098492;28;20436;-77
2021/04/18 02:47:21;;;;;;;12.33;6.67;;;7.70;99.90;;;;;;5084304;28;20678;-77
2021/04/18 02:49:47;;;;;;;8.00;6.70;;;7.70;99.90;;;;;;5088431;28;20207;-75
2021/04/18 02:52:13;;;;;;;11.30;6.77;;;7.70;99.90;;;;;;5102547;28;20231;-76
2021/04/18 02:54:39;;;;;;;10.53;6.90;;;7.70;99.90;;;;;;5113452;28;20202;-78
2021/04/18 02:57:05;;;;;;;12.30;7.10;;;7.70;99.90;;;;;;5095747;28;20416;-78
2021/04/18 02:59:31;;;;;;;11.80;7.10;;;7.60;99.90;;;;;;5081902;28;20956;-77
2021/04/18 03:01:56;;;;;;;13.90;7.43;;;7.60;99.90;;;;;;5079648;28;20455;-77
2021/04/18 03:04:22;;;;;;;10.63;6.10;;;7.60;99.90;;;;;;5087602;28;20685;-77
2021/04/18 03:06:48;;;;;;;6.93;6.20;;;7.70;99.90;;;;;;5081756;28;20325;-78
2021/04/18 03:09:13;;;;;;;13.30;6.10;;;7.70;99.90;;;;;;5077635;28;20206;-77
2021/04/18 03:11:39;;;;;;;9.50;6.53;;;7.80;99.90;;;;;;5074471;28;20559;-77
2021/04/18 03:14:04;;;;;;;7.40;6.03;;;7.80;99.90;;;;;;5073929;28;20198;-77
2021/04/18 03:16:30;;;;;;;6.77;5.60;;;7.80;99.90;;;;;;5073902;28;20173;-77
2021/04/18 03:18:55;;;;;;;11.97;6.23;;;7.80;99.90;;;;;;5073812;28;20533;-77
2021/04/18 03:21:21;;;;;;;10.57;6.03;;;7.70;99.90;;;;;;5073276;28;20424;-77
2021/04/18 03:23:47;;;;;;;13.97;7.07;;;7.60;99.90;;;;;;5073727;28;20177;-77
2021/04/18 03:26:12;;;;;;;9.37;5.97;;;7.60;99.90;;;;;;5073600;28;20215;-78
2021/04/18 03:28:38;;;;;;;10.50;6.70;;;7.60;99.90;;;;;;5072399;28;20172;-78
2021/04/18 03:31:03;;;;;;;13.83;6.53;;;7.50;99.90;;;;;;5073313;28;20332;-77
2021/04/18 03:33:29;;;;;;;9.33;5.70;;;7.50;99.90;;;;;;5073478;28;20220;-77
2021/04/18 03:35:55;;;;;;;13.70;6.00;;;7.60;99.90;;;;;;5073590;28;20631;-77
2021/04/18 03:38:20;;;;;;;12.20;7.23;;;7.60;99.90;;;;;;5073271;28;20584;-78
2021/04/18 03:40:46;;;;;;;11.53;5.80;;;7.60;99.90;;;;;;5073070;28;20412;-77
2021/04/18 03:43:12;;;;;;;8.67;6.10;;;7.60;99.90;;;;;;5073352;28;20186;-78
2021/04/18 03:45:38;;;;;;;10.10;5.63;;;7.70;99.90;;;;;;5073351;28;20408;-77
2021/04/18 03:48:04;;;;;;;10.77;6.50;;;7.70;99.90;;;;;;5073227;28;20192;-76
2021/04/18 03:50:30;;;;;;;9.13;5.87;;;7.60;99.90;;;;;;5073003;28;20486;-77
2021/04/18 03:52:56;;;;;;;10.00;6.33;;;7.60;99.90;;;;;;5073075;28;20969;-77
2021/04/18 03:55:23;;;;;;;11.40;5.77;;;7.50;99.90;;;;;;5069600;28;20258;-77
2021/04/18 03:57:49;;;;;;;9.13;5.47;;;7.50;99.90;;;;;;5065057;28;20170;-77
2021/04/18 04:00:16;;;;;;;13.93;5.57;;;7.50;99.90;;;;;;5079407;28;20420;-77
2021/04/18 04:02:41;;;;;;;8.70;6.60;;;7.50;99.90;;;;;;5083189;28;20536;-77
2021/04/18 04:05:08;;;;;;;8.33;5.50;;;7.50;99.90;;;;;;5079404;28;20427;-77
2021/04/18 04:07:33;;;;;;;12.30;5.93;;;7.50;99.90;;;;;;5078810;28;20208;-76
2021/04/18 04:09:59;;;;;;;9.17;5.83;;;7.50;99.90;;;;;;5079844;28;20495;-76
2021/04/18 04:12:27;;;;;;;10.63;6.80;;;7.50;99.90;;;;;;5085582;28;20280;-76
2021/04/18 04:14:52;;;;;;;12.30;7.77;;;7.50;99.90;;;;;;5077588;28;20178;-77
2021/04/18 04:17:18;;;;;;;12.30;6.77;;;7.30;99.90;;;;;;5076395;28;20471;-77
2021/04/18 04:19:44;;;;;;;16.67;6.40;;;7.30;99.90;;;;;;5079256;28;20209;-77
2021/04/18 04:22:10;;;;;;;13.43;7.03;;;7.20;99.90;;;;;;5077791;28;20836;-77
2021/04/18 04:24:35;;;;;;;13.20;7.73;;;7.20;99.90;;;;;;5077491;28;20178;-78
2021/04/18 04:27:01;;;;;;;11.10;7.60;;;7.30;99.90;;;;;;5077937;28;20209;-77
2021/04/18 04:29:27;;;;;;;16.43;7.87;;;7.30;99.90;;;;;;5072144;28;20181;-77
2021/04/18 04:31:52;;;;;;;15.33;7.70;;;7.30;99.90;;;;;;5077803;28;20205;-77
2021/04/18 04:34:17;;;;;;;15.43;9.00;;;7.30;99.90;;;;;;5091245;28;20196;-77
2021/04/18 04:36:43;;;;;;;11.60;7.23;;;7.30;99.90;;;;;;5081610;28;20518;-77
2021/04/18 04:39:09;;;;;;;14.70;8.87;;;7.30;99.90;;;;;;5076856;28;20521;-77
2021/04/18 04:41:34;;;;;;;16.93;8.33;;;7.30;99.90;;;;;;5076657;28;20209;-76
2021/04/18 04:44:00;;;;;;;13.43;9.23;;;7.30;99.90;;;;;;5078151;28;20427;-77
2021/04/18 04:46:26;;;;;;;11.53;7.47;;;7.40;99.90;;;;;;5077909;28;20185;-77
2021/04/18 04:48:51;;;;;;;15.57;8.47;;;7.50;99.90;;;;;;5079308;28;20267;-77
2021/04/18 04:51:17;;;;;;;13.77;9.00;;;7.50;99.90;;;;;;5076814;28;20208;-77
2021/04/18 04:53:42;;;;;;;10.43;7.93;;;7.50;99.90;;;;;;5077060;28;20200;-78
2021/04/18 04:56:08;;;;;;;14.10;7.80;;;7.60;99.90;;;;;;5078270;28;20181;-78
2021/04/18 04:58:33;;;;;;;14.33;9.37;;;7.60;99.90;;;;;;5077691;28;20165;-78
2021/04/18 05:00:59;;;;;;;16.27;8.43;;;7.60;99.90;;;;;;5077815;28;20170;-78
2021/04/18 05:03:27;;;;;;;13.23;8.60;;;7.70;99.90;;;;;;5077077;28;20261;-77
2021/04/18 05:05:53;;;;;;;18.83;7.50;;;7.70;99.90;;;;;;5076079;28;20926;-78
2021/04/18 05:08:19;;;;;;;16.70;8.10;;;7.70;99.90;;;;;;5077406;28;20560;-78
2021/04/18 05:10:45;;;;;;;12.37;7.90;;;7.70;99.90;;;;;;5077353;28;22398;-78
2021/04/18 05:13:11;;;;;;;10.47;7.43;;;7.70;99.90;;;;;;5077109;28;20197;-78
2021/04/18 05:15:36;;;;;;;12.33;7.87;;;7.70;99.90;;;;;;5077760;28;20428;-78
2021/04/18 05:18:03;;;;;;;15.67;8.27;;;7.70;99.90;;;;;;5076019;28;20322;-78
2021/04/18 05:20:29;;;;;;;14.40;7.33;;;7.70;99.90;;;;;;5074900;28;20232;-78
2021/04/18 05:22:55;;;;;;;8.40;6.60;;;7.70;99.90;;;;;;5075880;28;20455;-77
2021/04/18 05:25:21;;;;;;;9.60;6.80;;;7.70;99.90;;;;;;5077360;28;20474;-77
2021/04/18 05:27:46;;;;;;;11.90;7.57;;;7.70;99.90;;;;;;5076696;28;20522;-77
2021/04/18 05:30:13;;;;;;;13.80;7.30;;;7.60;99.90;;;;;;5076308;28;20704;-77
2021/04/18 05:32:39;;;;;;;12.80;6.97;;;7.60;99.90;;;;;;5078197;28;20567;-77
2021/04/18 05:35:05;;;;;;;11.27;7.17;;;7.70;99.90;;;;;;5076539;28;20433;-77
2021/04/18 05:37:31;;;;;;;10.17;6.93;;;7.70;99.90;;;;;;5078065;28;20434;-77
2021/04/18 05:39:56;;;;;;;11.80;7.00;;;7.70;99.90;;;;;;5075321;28;20431;-77
2021/04/18 05:42:22;;;;;;;15.07;6.17;;;7.70;99.90;;;;;;5079071;28;20255;-77
2021/04/18 05:44:48;;;;;;;10.17;6.67;;;7.70;99.90;;;;;;5078259;28;20180;-77
2021/04/18 05:47:13;;;;;;;11.30;6.77;;;7.70;99.90;;;;;;5077631;28;20200;-77
2021/04/18 05:49:39;;;;;;;12.73;6.47;;;7.70;99.90;;;;;;5066896;28;20983;-77
2021/04/18 05:52:05;;;;;;;13.33;8.63;;;7.70;99.90;;;;;;5077979;28;20677;-77
2021/04/18 05:54:31;;;;;;;10.77;7.07;;;7.70;99.90;;;;;;5081241;28;20241;-77
2021/04/18 05:56:56;;;;;;;13.20;7.50;;;7.70;99.90;;;;;;5079373;28;20539;-78
2021/04/18 05:59:22;;;;;;;10.77;7.00;;;7.70;99.90;;;;;;5077288;28;20192;-77
2021/04/18 06:01:47;;;;;;;12.80;6.80;;;7.70;99.90;;;;;;5077109;28;20216;-77
2021/04/18 06:04:13;;;;;;;10.33;6.60;;;7.80;99.90;;;;;;5078389;28;20834;-77
2021/04/18 06:06:38;;;;;;;9.73;6.43;;;7.70;99.90;;;;;;5078104;28;20189;-77
2021/04/18 06:09:04;;;;;;;11.30;6.30;;;7.70;99.90;;;;;;5081226;28;20268;-77
2021/04/18 06:11:29;;;;;;;9.27;6.57;;;7.60;99.90;;;;;;5078153;28;20228;-77
2021/04/18 06:13:55;;;;;;;10.87;5.20;;;7.60;99.90;;;;;;5075946;28;20224;-77
2021/04/18 06:16:21;;;;;;;13.00;6.77;;;7.60;99.90;;;;;;5076617;28;20810;-78
2021/04/18 06:18:47;;;;;;;9.70;5.90;;;7.60;99.90;;;;;;5076338;28;20665;-77
2021/04/18 06:21:13;;;;;;;9.30;5.73;;;7.70;99.90;;;;;;5077173;28;20193;-77
2021/04/18 06:23:39;;;;;;;11.73;7.00;;;7.70;99.90;;;;;;5077124;28;20438;-77
2021/04/18 06:26:04;;;;;;;9.67;6.50;;;7.70;99.90;;;;;;5077483;28;20206;-77
2021/04/18 06:28:30;;;;;;;11.17;6.67;;;7.70;99.90;;;;;;5077425;28;20190;-77
2021/04/18 06:30:55;;;;;;;14.13;6.40;;;7.70;99.90;;;;;;5079790;28;20174;-78
2021/04/18 06:33:21;;;;;;;20.07;7.03;;;7.60;99.90;;;;;;5081404;28;20214;-77
2021/04/18 06:35:48;;;;;;;14.23;7.43;;;7.70;99.90;;;;;;5077255;28;20174;-78
2021/04/18 06:38:13;;;;;;;11.43;6.90;;;7.70;99.90;;;;;;5081189;28;20201;-77
2021/04/18 06:40:40;;;;;;;14.90;7.13;;;7.90;99.90;;;;;;5077454;28;20513;-77
2021/04/18 06:43:08;;;;;;;11.97;7.77;;;8.00;99.90;;;;;;5079914;28;20284;-77
2021/04/18 06:45:34;;;;;;;13.13;6.80;;;8.10;99.90;;;;;;5077887;28;20485;-78
2021/04/18 06:48:00;;;;;;;15.17;7.30;;;8.10;99.90;;;;;;5081781;28;20449;-78
2021/04/18 06:50:26;;;;;;;12.50;6.67;;;8.20;99.90;;;;;;5077979;28;20870;-77
2021/04/18 06:52:51;;;;;;;16.43;7.73;;;8.30;99.90;;;;;;5074109;28;20492;-78
2021/04/18 06:55:17;;;;;;;12.03;7.50;;;8.30;99.90;;;;;;5085259;28;20279;-78
2021/04/18 06:57:43;;;;;;;16.07;7.97;;;8.40;99.90;;;;;;5079690;28;20173;-78
2021/04/18 07:00:11;;;;;;;16.27;7.87;;;8.60;99.90;;;;;;5078161;28;20173;-78
2021/04/18 07:02:37;;;;;;;11.90;7.60;;;8.50;99.90;;;;;;5080817;28;20475;-78
2021/04/18 07:05:13;;;;;;;16.63;7.63;;;8.70;99.90;;;;;;5081173;28;20427;-78
2021/04/18 07:07:41;;;;;;;16.00;8.67;;;8.90;99.90;;;;;;5078992;28;20434;-78
2021/04/18 07:10:13;;;;;;;13.93;8.50;;;9.00;99.90;;;;;;5077983;28;20431;-78
2021/04/18 07:12:41;;;;;;;16.70;8.40;;;9.10;99.90;;;;;;5081749;28;20443;-77
2021/04/18 07:15:08;;;;;;;15.43;7.50;;;9.20;99.90;;;;;;5085824;28;20938;-79
2021/04/18 07:17:46;;;;;;;18.80;8.37;;;9.90;99.90;;;;;;5076128;28;20486;-78
2021/04/18 07:20:14;;;;;;;14.70;6.87;;;10.30;99.90;;;;;;5080824;28;20423;-79
2021/04/18 07:22:40;;;;;;;14.30;7.77;;;10.60;99.90;;;;;;5093383;28;20423;-79
2021/04/18 07:25:07;;;;;;;18.50;8.23;;;11.40;99.90;;;;;;5080530;28;20421;-79
2021/04/18 07:27:52;;;;;;;17.30;8.10;;;12.20;99.90;;;;;;5072541;28;20428;-78
2021/04/18 07:30:25;;;;;;;13.10;8.43;;;13.10;99.90;;;;;;5070120;28;20429;-80
2021/04/18 07:33:05;;;;;;;13.17;9.03;;;13.60;99.90;;;;;;5075121;28;20502;-80
2021/04/18 07:35:35;;;;;;;10.93;7.67;;;14.00;99.90;;;;;;5073706;28;20434;-79
2021/04/18 07:38:14;;;;;;;15.00;7.87;;;14.10;99.90;;;;;;5078679;28;20487;-80
2021/04/18 07:40:40;;;;;;;11.50;7.43;;;14.40;99.90;;;;;;5080340;28;20466;-78
2021/04/18 07:43:10;;;;;;;15.10;8.50;;;14.50;99.90;;;;;;5078041;28;20481;-79
2021/04/18 07:45:36;;;;;;;13.00;8.47;;;13.90;99.90;;;;;;5090521;28;20193;-79
2021/04/18 07:48:02;;;;;;;15.43;7.80;;;13.50;99.90;;;;;;5079596;28;20965;-79
2021/04/18 07:50:28;;;;;;;15.60;8.33;;;12.90;99.90;;;;;;5079867;28;20477;-79
2021/04/18 07:52:54;;;;;;;16.43;8.80;;;12.80;99.90;;;;;;5079693;28;20501;-78
2021/04/18 07:55:20;;;;;;;19.80;10.00;;;12.80;99.90;;;;;;5079401;28;20172;-78
2021/04/18 07:57:46;;;;;;;14.03;8.93;;;12.90;99.90;;;;;;5078550;28;21973;-79
2021/04/18 08:00:14;;;;;;;16.13;8.87;;;12.90;99.90;;;;;;5077545;28;20440;-79
2021/04/18 08:02:41;;;;;;;14.97;9.13;;;13.00;99.90;;;;;;5080948;28;20202;-79
2021/04/18 08:05:10;;;;;;;18.70;8.87;;;13.10;99.90;;;;;;5078001;28;20472;-80
2021/04/18 08:07:56;;;;;;;14.30;8.37;;;13.30;99.90;;;;;;5078610;28;20428;-79
2021/04/18 08:10:40;;;;;;;11.47;8.10;;;13.80;99.90;;;;;;5077562;28;20974;-79
2021/04/18 08:13:15;;;;;;;10.03;7.93;;;14.20;99.90;;;;;;5076922;28;20557;-80
2021/04/18 08:16:05;;;;;;;10.07;7.90;;;14.80;99.90;;;;;;5067786;28;20487;-80
2021/04/18 08:18:33;;;;;;;16.90;8.30;;;15.50;99.90;;;;;;5076456;28;20423;-79
2021/04/18 08:21:03;;;;;;;14.33;8.03;;;16.20;99.90;;;;;;5072147;28;20456;-80
2021/04/18 08:23:46;;;;;;;15.07;9.17;;;16.70;99.90;;;;;;5062637;28;20824;-80
2021/04/18 08:26:20;;;;;;;13.00;8.20;;;17.50;99.90;;;;;;5081088;28;22366;-81
2021/04/18 08:28:52;;;;;;;9.63;8.57;;;18.20;99.90;;;;;;5074969;28;20435;-80
2021/04/18 08:31:25;;;;;;;10.70;7.57;;;18.50;99.90;;;;;;5078155;28;20986;-79
2021/04/18 08:33:53;;;;;;;13.80;8.43;;;18.00;99.90;;;;;;5076762;28;20477;-80
2021/04/18 08:36:22;;;;;;;13.07;9.77;;;17.50;99.90;;;;;;5077728;28;20478;-80
2021/04/18 08:39:01;;;;;;;12.90;9.67;;;17.10;99.90;;;;;;5077111;28;20420;-80
2021/04/18 08:41:48;;;;;;;13.97;9.60;;;16.70;99.90;;;;;;5064448;28;20546;-80
2021/04/18 08:44:15;;;;;;;11.50;8.43;;;16.30;99.90;;;;;;5072944;28;20434;-80
2021/04/18 08:46:41;;;;;;;11.43;8.07;;;15.80;99.90;;;;;;5071492;28;20577;-79
2021/04/18 08:49:07;;;;;;;12.10;8.60;;;15.20;99.90;;;;;;5073628;28;20424;-80
2021/04/18 08:51:33;;;;;;;9.87;7.23;;;14.90;99.90;;;;;;5072521;28;20440;-78
2021/04/18 08:54:01;;;;;;;14.80;8.73;;;14.80;99.90;;;;;;5071465;28;20806;-79
2021/04/18 08:56:49;;;;;;;10.73;8.40;;;15.00;99.90;;;;;;5072751;28;20167;-79
2021/04/18 08:59:16;;;;;;;14.33;9.17;;;14.80;99.90;;;;;;5071747;28;20789;-79
2021/04/18 09:02:10;;;;;;;17.43;9.23;;;14.70;99.90;;;;;;5072470;28;20428;-79
2021/04/18 09:04:50;;;;;;;12.27;8.20;;;14.60;99.90;;;;;;5072921;28;20517;-79
2021/04/18 09:07:19;;;;;;;13.60;9.30;;;14.60;99.90;;;;;;5072955;28;20475;-79
2021/04/18 09:09:45;;;;;;;11.90;8.67;;;14.70;99.90;;;;;;5071212;28;20507;-80
2021/04/18 09:12:13;;;;;;;11.83;8.53;;;14.70;99.90;;;;;;5072525;28;20428;-79
2021/04/18 09:14:43;;;;;;;17.97;9.07;;;14.80;99.90;;;;;;5077472;28;20474;-79
2021/04/18 09:17:16;;;;;;;12.50;8.63;;;14.70;99.90;;;;;;5071226;28;20846;-79
2021/04/18 09:20:03;;;;;;;9.30;7.43;;;14.80;99.90;;;;;;5071262;28;20525;-79
2021/04/18 09:22:30;;;;;;;10.57;8.10;;;14.70;99.90;;;;;;5061447;28;20432;-80
2021/04/18 09:25:00;;;;;;;17.23;8.67;;;14.60;99.90;;;;;;5072219;28;20416;-77
2021/04/18 09:27:34;;;;;;;16.13;8.33;;;14.40;99.90;;;;;;5072760;28;20519;-78
2021/04/18 09:29:59;;;;;;;13.57;9.63;;;14.20;99.90;;;;;;5079380;28;20431;-78
2021/04/18 09:32:27;;;;;;;13.03;9.63;;;14.10;99.90;;;;;;5077532;28;20440;-79
2021/04/18 09:34:53;;;;;;;13.47;9.30;;;14.00;99.90;;;;;;5068752;28;20905;-78
2021/04/18 09:37:30;;;;;;;11.90;7.57;;;13.80;99.90;;;;;;5069553;28;20417;-78
2021/04/18 09:40:03;;;;;;;13.67;8.73;;;13.60;99.90;;;;;;5070715;28;20823;-79
2021/04/18 09:42:34;;;;;;;14.33;9.43;;;13.70;99.90;;;;;;5070586;28;20441;-78
2021/04/18 09:45:14;;;;;;;16.63;9.07;;;13.80;99.90;;;;;;5056895;28;20476;-79
2021/04/18 09:47:41;;;;;;;14.33;9.03;;;13.90;99.90;;;;;;5071464;28;20438;-79
2021/04/18 09:50:16;;;;;;;17.27;10.40;;;13.70;99.90;;;;;;5070320;28;20476;-79
2021/04/18 09:52:42;;;;;;;15.60;9.90;;;13.90;99.90;;;;;;5073717;28;20547;-79
2021/04/18 09:55:18;;;;;;;17.67;8.53;;;14.00;99.90;;;;;;5073962;28;20477;-79
2021/04/18 09:57:52;;;;;;;12.17;9.27;;;14.10;99.90;;;;;;5069492;28;20581;-79
2021/04/18 10:00:29;;;;;;;9.67;8.37;;;14.20;99.90;;;;;;5074016;28;20537;-79
2021/04/18 10:02:59;;;;;;;9.10;6.80;;;14.20;99.90;;;;;;5073033;28;20436;-79
2021/04/18 10:05:25;;;;;;;10.77;8.77;;;14.30;99.90;;;;;;5074739;28;20418;-79
2021/04/18 10:08:11;;;;;;;12.63;8.13;;;14.30;99.90;;;;;;5075849;28;20469;-79
2021/04/18 10:10:36;;;;;;;12.73;8.60;;;14.40;99.90;;;;;;5063912;28;20420;-78
2021/04/18 10:13:02;;;;;;;14.53;9.37;;;14.20;99.90;;;;;;5073290;28;20448;-79
2021/04/18 10:15:27;;;;;;;8.93;8.00;;;14.30;99.90;;;;;;5074805;28;20185;-79
2021/04/18 10:17:53;;;;;;;15.77;9.57;;;14.40;99.90;;;;;;5074395;28;20219;-78
2021/04/18 10:20:25;;;;;;;18.03;10.50;;;14.20;99.90;;;;;;5082225;28;20740;-79
2021/04/18 10:23:10;;;;;;;14.23;10.63;;;14.10;99.90;;;;;;5074379;28;20194;-78
2021/04/18 10:25:38;;;;;;;13.00;10.43;;;14.00;99.90;;;;;;5055167;28;20917;-78
2021/04/18 10:28:06;;;;;;;16.10;9.90;;;13.90;99.90;;;;;;5070990;28;20419;-78
2021/04/18 10:31:02;;;;;;;17.57;9.60;;;13.80;99.90;;;;;;5076779;28;20420;-78
2021/04/18 10:33:51;;;;;;;11.77;8.93;;;13.80;99.90;;;;;;5071766;28;20472;-78
2021/04/18 10:37:15;;;;;;;12.07;9.43;;;13.70;99.90;;;;;;5083967;28;20416;-78
2021/04/18 10:40:37;;;;;;;16.77;9.67;;;13.60;99.90;;;;;;5062761;28;20558;-79
2021/04/18 10:43:46;;;;;;;11.00;9.60;;;13.60;99.90;;;;;;5077603;28;20412;-78
2021/04/18 10:46:43;;;;;;;12.17;8.47;;;13.60;99.90;;;;;;5086494;28;20454;-78
2021/04/18 10:49:15;;;;;;;13.27;8.93;;;13.60;99.90;;;;;;5079117;28;20423;-80
2021/04/18 10:51:44;;;;;;;15.57;10.50;;;13.80;99.90;;;;;;5076945;28;20442;-77
2021/04/18 10:54:40;;;;;;;14.07;9.40;;;13.70;99.90;;;;;;5077514;28;20456;-79
2021/04/18 10:57:35;;;;;;;20.73;8.67;;;13.60;99.90;;;;;;5071896;28;20430;-78
2021/04/18 11:00:07;;;;;;;15.60;10.10;;;13.60;99.90;;;;;;5077926;28;20427;-80
2021/04/18 11:03:10;;;;;;;15.93;10.07;;;13.70;99.90;;;;;;5097618;28;20824;-78
2021/04/18 11:05:43;;;;;;;18.50;9.03;;;13.50;99.90;;;;;;5077820;28;20506;-78
2021/04/18 11:08:10;;;;;;;13.37;8.40;;;13.60;99.90;;;;;;5071629;28;20408;-78
2021/04/18 11:11:00;;;;;;;13.10;9.43;;;13.80;99.90;;;;;;5079745;28;20425;-78
2021/04/18 11:13:59;;;;;;;12.37;9.50;;;13.90;99.90;;;;;;5077322;28;20447;-78
2021/04/18 11:16:25;;;;;;;10.93;9.00;;;13.90;99.90;;;;;;5046732;28;20782;-78
2021/04/18 11:18:53;;;;;;;10.30;8.93;;;13.90;99.90;;;;;;5072639;28;20535;-78
2021/04/18 11:21:19;;;;;;;14.73;10.80;;;13.80;99.90;;;;;;5078307;28;20424;-78
2021/04/18 11:23:45;;;;;;;15.60;9.93;;;13.80;99.90;;;;;;5083088;28;20424;-78
2021/04/18 11:26:11;;;;;;;17.27;8.60;;;13.70;99.90;;;;;;5100243;28;20427;-78
2021/04/18 11:28:36;;;;;;;10.73;8.50;;;13.80;99.90;;;;;;5078560;28;20182;-78
2021/04/18 11:31:02;;;;;;;11.67;8.80;;;13.80;99.90;;;;;;5074958;28;20416;-79
2021/04/18 11:33:27;;;;;;;12.00;9.03;;;13.80;99.90;;;;;;5075348;28;20190;-80
2021/04/18 11:35:54;;;;;;;16.37;10.73;;;13.80;99.90;;;;;;5075364;28;20643;-78
2021/04/18 11:38:20;;;;;;;13.93;9.20;;;13.80;99.90;;;;;;5075702;28;20171;-78
2021/04/18 11:40:51;;;;;;;14.33;8.57;;;13.90;99.90;;;;;;5054379;28;20494;-79
2021/04/18 11:43:18;;;;;;;18.17;10.80;;;13.90;99.90;;;;;;5055580;28;20424;-77
2021/04/18 11:45:44;;;;;;;11.43;9.20;;;13.80;99.90;;;;;;5064491;28;20428;-80
2021/04/18 11:48:10;;;;;;;10.40;8.13;;;13.70;99.90;;;;;;5054584;28;20420;-78
2021/04/18 11:50:35;;;;;;;11.70;8.67;;;13.70;99.90;;;;;;5059738;28;20640;-78
2021/04/18 11:53:01;;;;;;;12.60;8.40;;;13.80;99.90;;;;;;5091156;28;20201;-78
2021/04/18 11:55:28;;;;;;;14.73;8.47;;;13.90;99.90;;;;;;5100450;28;20205;-78
2021/04/18 11:57:54;;;;;;;13.57;8.60;;;13.90;99.90;;;;;;5072401;28;20228;-78
2021/04/18 12:00:20;;;;;;;11.20;8.10;;;13.90;99.90;;;;;;5071415;28;20420;-78
2021/04/18 12:02:46;;;;;;;12.57;8.37;;;14.00;99.90;;;;;;5072264;28;20232;-78
2021/04/18 12:05:14;;;;;;;11.83;8.60;;;14.00;99.90;;;;;;5072601;28;21284;-78
2021/04/18 12:07:40;;;;;;;15.30;8.43;;;14.00;99.90;;;;;;5087024;28;20520;-78
2021/04/18 12:10:07;;;;;;;13.23;8.37;;;14.10;99.90;;;;;;5071602;28;20837;-79
2021/04/18 12:12:33;;;;;;;10.20;7.80;;;14.20;99.90;;;;;;5073078;28;20444;-79
2021/04/18 12:14:59;;;;;;;12.13;8.27;;;14.40;99.90;;;;;;5073076;28;20459;-78
2021/04/18 12:17:24;;;;;;;9.30;7.57;;;14.60;99.90;;;;;;5072778;28;20810;-79
2021/04/18 12:19:50;;;;;;;12.63;8.90;;;14.70;99.90;;;;;;5072799;28;20177;-78
2021/04/18 12:22:15;;;;;;;11.70;8.83;;;14.80;99.90;;;;;;5072391;28;20194;-78
2021/04/18 12:24:42;;;;;;;8.23;7.00;;;14.80;99.90;;;;;;5072986;28;20217;-79
2021/04/18 12:27:08;;;;;;;11.70;7.43;;;14.90;99.90;;;;;;5072766;28;20546;-79
2021/04/18 12:29:33;;;;;;;11.67;9.07;;;15.00;99.90;;;;;;5071945;28;20409;-79
2021/04/18 12:31:59;;;;;;;10.50;7.10;;;15.10;99.90;;;;;;5073237;28;20192;-78
2021/04/18 12:34:24;;;;;;;13.90;8.30;;;15.00;99.90;;;;;;5070048;28;20236;-79
2021/04/18 12:36:50;;;;;;;9.00;7.60;;;15.00;99.90;;;;;;5088598;28;20223;-78
2021/04/18 12:39:16;;;;;;;11.70;8.33;;;15.10;99.90;;;;;;5071448;28;20221;-79
2021/04/18 12:41:41;;;;;;;15.93;8.60;;;14.60;99.90;;;;;;5074049;28;20202;-77
2021/04/18 12:44:07;;;;;;;9.30;7.90;;;14.60;99.90;;;;;;5073194;28;20204;-79
2021/04/18 12:46:33;;;;;;;12.87;8.20;;;14.50;99.90;;;;;;5091055;28;20178;-79
2021/04/18 12:48:58;;;;;;;10.23;7.63;;;14.50;99.90;;;;;;5075274;28;20511;-79
2021/04/18 12:51:27;;;;;;;15.00;9.17;;;14.60;99.90;;;;;;5068249;28;20206;-78
2021/04/18 12:53:56;;;;;;;11.10;8.17;;;14.80;99.90;;;;;;5090872;28;20185;-79